createdAt,value
2022-09-17T00:01:40.395Z,11.10
2022-09-17T00:04:11.358Z,11.10
2022-09-17T00:06:39.985Z,11.10
2022-09-17T00:09:08.905Z,11.10
2022-09-17T00:11:39.192Z,11.10
2022-09-17T00:14:09.341Z,11.00
2022-09-17T00:16:40.395Z,11.10
2022-09-17T00:19:14.945Z,11.10
2022-09-17T00:21:43.613Z,11.10
2022-09-17T00:24:13.490Z,11.10
2022-09-17T00:26:42.637Z,11.10
2022-09-17T00:29:12.106Z,11.10
2022-09-17T00:31:41.001Z,11.20
2022-09-17T00:34:11.846Z,11.20
2022-09-17T00:36:41.311Z,11.20
2022-09-17T00:39:11.762Z,11.20
2022-09-17T00:41:40.752Z,11.20
2022-09-17T00:44:46.011Z,11.20
2022-09-17T00:47:20.110Z,11.20
2022-09-17T00:49:53.472Z,11.20
2022-09-17T00:52:27.288Z,11.20
2022-09-17T00:55:01.085Z,11.20
2022-09-17T00:57:31.740Z,11.20
2022-09-17T01:00:00.384Z,11.20
2022-09-17T01:02:29.026Z,11.20
2022-09-17T01:04:58.965Z,11.20
2022-09-17T01:07:49.362Z,11.30
2022-09-17T01:10:29.733Z,11.30
2022-09-17T01:13:07.338Z,11.30
2022-09-17T01:15:44.113Z,11.30
2022-09-17T01:18:33.975Z,11.30
2022-09-17T01:21:40.313Z,11.40
2022-09-17T01:24:43.742Z,11.40
2022-09-17T01:27:55.485Z,11.40
2022-09-17T01:31:08.671Z,11.40
2022-09-17T01:33:44.458Z,11.40
2022-09-17T01:36:24.144Z,11.40
2022-09-17T01:39:01.717Z,11.40
2022-09-17T01:41:38.368Z,11.40
2022-09-17T01:44:12.338Z,11.40
2022-09-17T01:46:45.254Z,11.40
2022-09-17T01:49:17.439Z,11.40
2022-09-17T01:51:48.927Z,11.40
2022-09-17T01:54:21.615Z,11.40
2022-09-17T01:56:56.289Z,11.40
2022-09-17T01:59:28.842Z,11.40
2022-09-17T02:02:04.157Z,11.40
2022-09-17T02:04:40.219Z,11.40
2022-09-17T02:07:13.357Z,11.40
2022-09-17T02:09:45.310Z,11.40
2022-09-17T02:12:22.142Z,11.40
2022-09-17T02:14:52.601Z,11.40
2022-09-17T02:17:26.974Z,11.50
2022-09-17T02:19:57.646Z,11.50
2022-09-17T02:22:31.066Z,11.40
2022-09-17T02:25:05.578Z,11.40
2022-09-17T02:27:45.982Z,11.40
2022-09-17T02:30:15.265Z,11.40
2022-09-17T02:32:43.849Z,11.40
2022-09-17T02:35:15.138Z,11.40
2022-09-17T02:37:44.629Z,11.40
2022-09-17T02:40:16.001Z,11.40
2022-09-17T02:43:02.381Z,11.40
2022-09-17T02:45:47.114Z,11.40
2022-09-17T02:48:31.038Z,11.40
2022-09-17T02:51:12.682Z,11.40
2022-09-17T02:53:47.170Z,11.40
2022-09-17T02:56:25.949Z,11.40
2022-09-17T02:59:09.422Z,11.40
2022-09-17T03:01:43.829Z,11.40
2022-09-17T03:04:16.306Z,11.40
2022-09-17T03:06:47.422Z,11.30
2022-09-17T03:09:16.063Z,11.40
2022-09-17T03:11:44.654Z,11.30
2022-09-17T03:14:13.223Z,11.20
2022-09-17T03:16:41.709Z,11.20
2022-09-17T03:19:10.191Z,11.30
2022-09-17T03:21:38.692Z,11.30
2022-09-17T03:24:08.821Z,11.20
2022-09-17T03:26:37.290Z,11.30
2022-09-17T03:29:06.453Z,11.30
2022-09-17T03:31:35.038Z,11.30
2022-09-17T03:34:03.494Z,11.30
2022-09-17T03:36:32.239Z,11.40
2022-09-17T03:39:01.165Z,11.40
2022-09-17T03:41:30.965Z,11.40
2022-09-17T03:43:59.460Z,11.40
2022-09-17T03:46:27.938Z,11.40
2022-09-17T03:48:56.426Z,11.40
2022-09-17T03:51:24.928Z,11.40
2022-09-17T03:53:53.380Z,11.40
2022-09-17T03:56:21.876Z,11.40
2022-09-17T03:58:51.753Z,11.40
2022-09-17T04:01:20.269Z,11.30
2022-09-17T04:03:48.738Z,11.40
2022-09-17T04:06:17.306Z,11.40
2022-09-17T04:08:45.958Z,11.40
2022-09-17T04:11:14.836Z,11.40
2022-09-17T04:13:43.865Z,11.40
2022-09-17T04:16:13.713Z,11.40
2022-09-17T04:18:42.193Z,11.40
2022-09-17T04:21:10.717Z,11.30
2022-09-17T04:23:39.693Z,11.30
2022-09-17T04:26:08.144Z,11.40
2022-09-17T04:28:36.657Z,11.40
2022-09-17T04:31:05.213Z,11.40
2022-09-17T04:33:35.145Z,11.40
2022-09-17T04:36:04.311Z,11.40
2022-09-17T04:38:33.471Z,11.50
2022-09-17T04:41:02.013Z,11.50
2022-09-17T04:43:30.502Z,11.50
2022-09-17T04:45:58.999Z,11.50
2022-09-17T04:48:27.497Z,11.40
2022-09-17T04:50:57.332Z,11.40
2022-09-17T04:53:25.889Z,11.40
2022-09-17T04:55:54.365Z,11.40
2022-09-17T04:58:23.017Z,11.30
2022-09-17T05:00:51.702Z,11.40
2022-09-17T05:03:20.249Z,11.40
2022-09-17T05:05:48.791Z,11.30
2022-09-17T05:08:18.558Z,11.40
2022-09-17T05:10:47.020Z,11.30
2022-09-17T05:13:15.669Z,11.30
2022-09-17T05:15:45.011Z,11.30
2022-09-17T05:18:13.513Z,11.30
2022-09-17T05:20:42.003Z,11.30
2022-09-17T05:23:10.551Z,11.40
2022-09-17T05:25:40.412Z,11.40
2022-09-17T05:28:08.987Z,11.40
2022-09-17T05:30:37.470Z,11.40
2022-09-17T05:33:07.913Z,11.40
2022-09-17T05:35:36.896Z,11.40
2022-09-17T05:38:07.486Z,11.40
2022-09-17T05:40:37.546Z,11.40
2022-09-17T05:43:08.269Z,11.40
2022-09-17T05:45:37.918Z,11.40
2022-09-17T05:48:11.133Z,11.50
2022-09-17T05:50:39.801Z,11.50
2022-09-17T05:53:09.877Z,11.50
2022-09-17T05:55:39.462Z,11.50
2022-09-17T05:58:12.822Z,11.50
2022-09-17T06:00:42.596Z,11.50
2022-09-17T06:03:12.798Z,11.50
2022-09-17T06:05:41.804Z,11.50
2022-09-17T06:08:10.792Z,11.50
2022-09-17T06:10:40.099Z,11.50
2022-09-17T06:13:08.561Z,11.50
2022-09-17T06:15:38.421Z,11.60
2022-09-17T06:18:06.997Z,11.60
2022-09-17T06:20:35.452Z,11.60
2022-09-17T06:23:04.012Z,11.70
2022-09-17T06:25:32.841Z,11.70
2022-09-17T06:28:03.933Z,11.80
2022-09-17T06:30:32.387Z,11.80
2022-09-17T06:33:02.826Z,11.90
2022-09-17T06:35:31.623Z,11.90
2022-09-17T06:38:01.082Z,12.00
2022-09-17T06:40:29.594Z,12.00
2022-09-17T06:42:59.162Z,12.10
2022-09-17T06:45:29.121Z,12.10
2022-09-17T06:47:57.565Z,12.20
2022-09-17T06:50:27.420Z,12.30
2022-09-17T06:52:56.340Z,12.40
2022-09-17T06:55:24.866Z,12.40
2022-09-17T06:57:53.328Z,12.50
2022-09-17T07:00:22.153Z,12.50
2022-09-17T07:02:57.765Z,12.50
2022-09-17T07:05:29.688Z,12.60
2022-09-17T07:07:58.122Z,12.60
2022-09-17T07:10:26.818Z,12.70
2022-09-17T07:12:55.617Z,12.80
2022-09-17T07:15:24.608Z,12.90
2022-09-17T07:17:53.194Z,12.90
2022-09-17T07:20:21.722Z,12.90
2022-09-17T07:22:58.197Z,12.90
2022-09-17T07:25:27.578Z,12.80
2022-09-17T07:27:56.540Z,12.80
2022-09-17T07:30:25.090Z,12.80
2022-09-17T07:32:53.649Z,12.80
2022-09-17T07:35:22.107Z,12.80
2022-09-17T07:37:50.573Z,12.80
2022-09-17T07:40:20.494Z,12.80
2022-09-17T07:42:49.138Z,12.70
2022-09-17T07:45:17.798Z,12.70
2022-09-17T07:47:46.496Z,12.70
2022-09-17T07:50:15.060Z,12.70
2022-09-17T07:52:47.216Z,12.80
2022-09-17T07:55:16.638Z,12.80
2022-09-17T07:57:52.277Z,12.80
2022-09-17T08:00:20.961Z,12.80
2022-09-17T08:02:54.663Z,12.80
2022-09-17T08:05:23.458Z,12.80
2022-09-17T08:07:52.370Z,12.80
2022-09-17T08:10:22.965Z,12.80
2022-09-17T08:12:56.982Z,12.80
2022-09-17T08:15:25.880Z,12.80
2022-09-17T08:17:54.406Z,12.90
2022-09-17T08:20:24.241Z,12.90
2022-09-17T08:22:58.850Z,12.90
2022-09-17T08:25:27.478Z,12.90
2022-09-17T08:27:57.516Z,13.00
2022-09-17T08:30:26.101Z,13.10
2022-09-17T08:32:57.562Z,13.10
2022-09-17T08:35:27.941Z,13.20
2022-09-17T08:37:56.738Z,13.20
2022-09-17T08:40:27.766Z,13.30
2022-09-17T08:43:02.434Z,13.40
2022-09-17T08:45:31.165Z,13.50
2022-09-17T08:48:04.453Z,13.60
2022-09-17T08:50:34.859Z,13.60
2022-09-17T08:53:32.124Z,13.70
2022-09-17T08:56:05.605Z,13.80
2022-09-17T08:59:09.298Z,13.90
2022-09-17T09:01:46.634Z,13.80
2022-09-17T09:04:51.552Z,13.80
2022-09-17T09:07:24.589Z,13.80
2022-09-17T09:10:00.785Z,13.80
2022-09-17T09:12:34.721Z,13.80
2022-09-17T09:15:09.097Z,13.80
2022-09-17T09:17:42.822Z,13.80
2022-09-17T09:20:18.405Z,13.90
2022-09-17T09:22:50.461Z,14.00
2022-09-17T09:25:24.854Z,14.00
2022-09-17T09:28:03.319Z,14.10
2022-09-17T09:30:44.371Z,14.20
2022-09-17T09:33:15.683Z,14.30
2022-09-17T09:35:45.260Z,14.40
2022-09-17T09:38:23.681Z,14.30
2022-09-17T09:40:57.942Z,14.40
2022-09-17T09:43:52.993Z,14.40
2022-09-17T09:46:46.635Z,14.50
2022-09-17T09:49:27.187Z,14.50
2022-09-17T09:52:06.470Z,14.60
2022-09-17T09:54:50.368Z,14.70
2022-09-17T09:57:23.381Z,14.70
2022-09-17T09:59:51.871Z,14.80
2022-09-17T10:02:21.841Z,14.80
2022-09-17T10:04:53.511Z,14.90
2022-09-17T10:07:22.079Z,14.90
2022-09-17T10:09:51.005Z,14.80
2022-09-17T10:12:19.629Z,14.80
2022-09-17T10:14:48.347Z,14.70
2022-09-17T10:17:23.547Z,14.70
2022-09-17T10:20:20.730Z,14.70
2022-09-17T10:22:51.564Z,14.70
2022-09-17T10:25:28.512Z,14.70
2022-09-17T10:27:58.451Z,14.80
2022-09-17T10:30:27.669Z,14.80
2022-09-17T10:33:22.167Z,14.80
2022-09-17T10:35:59.941Z,14.90
2022-09-17T10:38:31.154Z,14.90
2022-09-17T10:41:17.996Z,14.90
2022-09-17T10:43:46.934Z,14.90
2022-09-17T10:46:19.751Z,14.90
2022-09-17T10:48:59.890Z,15.00
2022-09-17T10:51:29.249Z,15.10
2022-09-17T10:54:09.770Z,15.10
2022-09-17T10:56:43.546Z,15.10
2022-09-17T10:59:38.858Z,15.10
2022-09-17T11:02:32.416Z,15.00
2022-09-17T11:05:12.794Z,14.90
2022-09-17T11:07:45.885Z,14.80
2022-09-17T11:10:22.283Z,14.80
2022-09-17T11:13:11.873Z,14.80
2022-09-17T11:15:53.286Z,14.80
2022-09-17T11:18:44.161Z,14.90
2022-09-17T11:21:32.094Z,14.90
2022-09-17T11:24:24.134Z,14.90
2022-09-17T11:27:01.518Z,15.00
2022-09-17T11:29:45.279Z,15.10
2022-09-17T11:32:30.805Z,15.10
2022-09-17T11:35:03.505Z,15.20
2022-09-17T11:37:38.332Z,15.30
2022-09-17T11:40:15.959Z,15.30
2022-09-17T11:42:49.557Z,15.40
2022-09-17T11:45:21.963Z,15.50
2022-09-17T11:47:57.309Z,15.60
2022-09-17T11:50:30.678Z,15.70
2022-09-17T11:53:10.360Z,15.70
2022-09-17T11:55:46.041Z,15.80
2022-09-17T11:58:18.242Z,15.80
2022-09-17T12:00:53.689Z,15.80
2022-09-17T12:03:30.943Z,15.80
2022-09-17T12:06:03.106Z,15.70
2022-09-17T12:08:40.395Z,15.70
2022-09-17T12:11:15.146Z,15.60
2022-09-17T12:13:46.847Z,15.50
2022-09-17T12:16:20.179Z,15.40
2022-09-17T12:18:59.004Z,15.30
2022-09-17T12:21:31.586Z,15.10
2022-09-17T12:24:08.811Z,15.00
2022-09-17T12:27:05.434Z,14.90
2022-09-17T12:30:02.813Z,14.70
2022-09-17T12:32:54.227Z,14.60
2022-09-17T12:36:02.527Z,14.70
2022-09-17T12:38:51.090Z,14.70
2022-09-17T12:41:25.425Z,14.70
2022-09-17T12:44:08.652Z,14.70
2022-09-17T12:46:54.523Z,14.70
2022-09-17T12:49:58.077Z,14.70
2022-09-17T12:52:34.624Z,14.70
2022-09-17T12:55:31.547Z,14.50
2022-09-17T12:58:10.809Z,14.20
2022-09-17T13:00:44.976Z,13.90
2022-09-17T13:03:20.967Z,14.00
2022-09-17T13:06:14.566Z,13.90
2022-09-17T13:09:16.373Z,14.00
2022-09-17T13:12:10.853Z,14.20
2022-09-17T13:15:11.533Z,14.30
2022-09-17T13:18:06.067Z,14.40
2022-09-17T13:20:43.715Z,14.50
2022-09-17T13:23:12.966Z,14.60
2022-09-17T13:25:52.589Z,14.70
2022-09-17T13:28:21.659Z,14.70
2022-09-17T13:30:59.403Z,14.80
2022-09-17T13:33:52.630Z,15.00
2022-09-17T13:36:39.242Z,15.00
2022-09-17T13:39:10.268Z,15.10
2022-09-17T13:41:41.460Z,15.00
2022-09-17T13:44:12.514Z,15.00
2022-09-17T13:46:42.431Z,15.10
2022-09-17T13:49:16.469Z,15.20
2022-09-17T13:51:55.429Z,15.30
2022-09-17T13:54:36.443Z,15.50
2022-09-17T13:57:11.921Z,15.70
2022-09-17T13:59:56.999Z,15.80
2022-09-17T14:02:34.999Z,15.80
2022-09-17T14:05:28.658Z,15.80
2022-09-17T14:08:29.224Z,15.70
2022-09-17T14:11:00.565Z,15.60
2022-09-17T14:13:42.448Z,15.40
2022-09-17T14:16:40.386Z,15.20
2022-09-17T14:19:26.120Z,15.10
2022-09-17T14:22:01.617Z,15.00
2022-09-17T14:24:37.103Z,14.80
2022-09-17T14:27:15.410Z,14.80
2022-09-17T14:30:13.275Z,14.80
2022-09-17T14:32:47.554Z,14.80
2022-09-17T14:35:23.938Z,14.80
2022-09-17T14:37:56.515Z,15.00
2022-09-17T14:40:26.402Z,15.10
2022-09-17T14:42:57.617Z,15.20
2022-09-17T14:45:30.294Z,15.30
2022-09-17T14:48:28.510Z,15.40
2022-09-17T14:51:28.163Z,15.50
2022-09-17T14:54:15.926Z,15.60
2022-09-17T14:56:57.299Z,15.70
2022-09-17T14:59:47.640Z,15.80
2022-09-17T15:02:37.125Z,15.90
2022-09-17T15:05:28.220Z,15.90
2022-09-17T15:08:12.699Z,16.00
2022-09-17T15:10:49.102Z,16.00
2022-09-17T15:13:20.271Z,15.90
2022-09-17T15:15:58.955Z,15.70
2022-09-17T15:18:37.960Z,15.40
2022-09-17T15:21:15.658Z,15.20
2022-09-17T15:23:47.577Z,15.00
2022-09-17T15:26:19.237Z,14.80
2022-09-17T15:28:48.014Z,14.80
2022-09-17T15:31:19.649Z,14.60
2022-09-17T15:33:48.895Z,14.50
2022-09-17T15:36:22.888Z,14.40
2022-09-17T15:38:52.821Z,14.30
2022-09-17T15:41:33.421Z,14.20
2022-09-17T15:44:31.873Z,14.10
2022-09-17T15:47:37.943Z,14.10
2022-09-17T15:50:15.618Z,14.00
2022-09-17T15:52:44.477Z,13.70
2022-09-17T15:55:34.701Z,13.30
2022-09-17T15:58:05.634Z,13.10
2022-09-17T16:00:34.224Z,12.90
2022-09-17T16:03:50.906Z,12.70
2022-09-17T16:06:38.703Z,12.60
2022-09-17T16:09:41.831Z,12.40
2022-09-17T16:12:14.153Z,12.30
2022-09-17T16:14:47.401Z,12.20
2022-09-17T16:17:43.095Z,12.10
2022-09-17T16:20:17.172Z,12.10
2022-09-17T16:22:47.912Z,12.00
2022-09-17T16:25:18.485Z,12.00
2022-09-17T16:27:51.381Z,12.00
2022-09-17T16:30:23.016Z,11.90
2022-09-17T16:32:52.857Z,11.90
2022-09-17T16:35:23.936Z,11.90
2022-09-17T16:37:54.030Z,11.90
2022-09-17T16:40:27.922Z,11.90
2022-09-17T16:42:57.009Z,11.80
2022-09-17T16:45:28.821Z,11.80
2022-09-17T16:47:58.389Z,11.80
2022-09-17T16:50:27.280Z,11.80
2022-09-17T16:52:55.896Z,11.80
2022-09-17T16:55:25.849Z,11.80
2022-09-17T16:57:54.298Z,11.80
2022-09-17T17:00:22.842Z,11.70
2022-09-17T17:02:55.925Z,11.70
2022-09-17T17:05:25.573Z,11.70
2022-09-17T17:07:55.154Z,11.70
2022-09-17T17:10:27.325Z,11.70
2022-09-17T17:12:55.899Z,11.70
2022-09-17T17:15:24.962Z,11.70
2022-09-17T17:17:53.755Z,11.70
2022-09-17T17:20:22.724Z,11.70
2022-09-17T17:22:51.897Z,11.70
2022-09-17T17:25:20.409Z,11.60
2022-09-17T17:27:50.336Z,11.70
2022-09-17T17:30:18.881Z,11.70
2022-09-17T17:32:51.728Z,11.70
2022-09-17T17:35:20.800Z,11.60
2022-09-17T17:37:49.265Z,11.70
2022-09-17T17:40:17.995Z,11.70
2022-09-17T17:42:47.445Z,11.70
2022-09-17T17:45:17.462Z,11.70
2022-09-17T17:47:46.061Z,11.70
2022-09-17T17:50:15.753Z,11.70
2022-09-17T17:52:47.947Z,11.70
2022-09-17T17:55:17.010Z,11.70
2022-09-17T17:57:45.436Z,11.70
2022-09-17T18:00:16.215Z,11.70
2022-09-17T18:02:46.141Z,11.70
2022-09-17T18:05:15.068Z,11.70
2022-09-17T18:07:43.717Z,11.60
2022-09-17T18:10:13.032Z,11.60
2022-09-17T18:12:41.604Z,11.60
2022-09-17T18:15:10.714Z,11.60
2022-09-17T18:17:39.168Z,11.50
2022-09-17T18:20:10.212Z,11.50
2022-09-17T18:22:38.749Z,11.50
2022-09-17T18:25:08.150Z,11.50
2022-09-17T18:27:36.704Z,11.50
2022-09-17T18:30:05.933Z,11.50
2022-09-17T18:32:34.449Z,11.50
2022-09-17T18:35:06.182Z,11.50
2022-09-17T18:37:36.541Z,11.50
2022-09-17T18:40:05.826Z,11.50
2022-09-17T18:42:34.437Z,11.50
2022-09-17T18:45:02.938Z,11.60
2022-09-17T18:47:31.427Z,11.50
2022-09-17T18:50:00.184Z,11.50
2022-09-17T18:52:28.801Z,11.50
2022-09-17T18:54:58.597Z,11.50
2022-09-17T18:57:27.026Z,11.50
2022-09-17T18:59:55.501Z,11.60
2022-09-17T19:02:24.090Z,11.60
2022-09-17T19:04:52.843Z,11.60
2022-09-17T19:07:21.345Z,11.60
2022-09-17T19:09:49.766Z,11.60
2022-09-17T19:12:19.709Z,11.70
2022-09-17T19:14:48.199Z,11.70
2022-09-17T19:17:17.634Z,11.60
2022-09-17T19:19:46.112Z,11.70
2022-09-17T19:22:14.548Z,11.60
2022-09-17T19:24:43.041Z,11.60
2022-09-17T19:27:11.518Z,11.70
2022-09-17T19:29:41.427Z,11.70
2022-09-17T19:32:10.024Z,11.60
2022-09-17T19:34:38.473Z,11.60
2022-09-17T19:37:07.025Z,11.60
2022-09-17T19:39:35.613Z,11.60
2022-09-17T19:42:04.180Z,11.60
2022-09-17T19:44:35.048Z,11.60
2022-09-17T19:47:05.129Z,11.60
2022-09-17T19:49:33.689Z,11.60
2022-09-17T19:52:02.437Z,11.60
2022-09-17T19:54:30.870Z,11.60
2022-09-17T19:56:59.317Z,11.60
2022-09-17T19:59:27.767Z,11.60
2022-09-17T20:01:56.321Z,11.60
2022-09-17T20:04:26.145Z,11.70
2022-09-17T20:06:54.655Z,11.70
2022-09-17T20:09:23.104Z,11.70
2022-09-17T20:11:51.645Z,11.60
2022-09-17T20:14:20.271Z,11.70
2022-09-17T20:16:48.858Z,11.70
2022-09-17T20:19:18.146Z,11.70
2022-09-17T20:21:48.041Z,11.70
2022-09-17T20:24:16.525Z,11.70
2022-09-17T20:26:44.980Z,11.70
2022-09-17T20:29:13.440Z,11.70
2022-09-17T20:31:41.925Z,11.70
2022-09-17T20:34:11.888Z,11.70
2022-09-17T20:36:40.518Z,11.70
2022-09-17T20:39:16.555Z,11.80
2022-09-17T20:41:48.162Z,11.80
2022-09-17T20:44:17.675Z,11.80
2022-09-17T20:46:46.230Z,11.80
2022-09-17T20:49:14.726Z,11.80
2022-09-17T20:51:43.208Z,11.80
2022-09-17T20:54:13.277Z,11.80
2022-09-17T20:56:41.715Z,11.80
2022-09-17T20:59:14.860Z,11.80
2022-09-17T21:01:45.433Z,11.80
2022-09-17T21:04:16.350Z,11.80
2022-09-17T21:06:45.204Z,11.80
2022-09-17T21:09:16.696Z,11.80
2022-09-17T21:11:46.262Z,11.80
2022-09-17T21:14:17.264Z,11.80
2022-09-17T21:16:46.449Z,11.80
2022-09-17T21:19:16.034Z,11.80
2022-09-17T21:21:44.701Z,11.80
2022-09-17T21:24:14.617Z,11.80
2022-09-17T21:26:44.993Z,11.80
2022-09-17T21:29:13.549Z,11.80
2022-09-17T21:31:42.089Z,11.80
2022-09-17T21:34:13.353Z,11.80
2022-09-17T21:36:44.441Z,11.80
2022-09-17T21:39:16.189Z,11.80
2022-09-17T21:41:45.713Z,11.80
2022-09-17T21:44:14.501Z,11.80
2022-09-17T21:46:43.565Z,11.80
2022-09-17T21:49:13.267Z,11.80
2022-09-17T21:51:43.472Z,11.80
2022-09-17T21:54:15.662Z,11.80
2022-09-17T21:56:45.155Z,11.80
2022-09-17T21:59:14.770Z,11.80
2022-09-17T22:01:46.509Z,11.80
2022-09-17T22:04:17.046Z,11.90
2022-09-17T22:06:47.014Z,11.90
2022-09-17T22:09:19.210Z,11.90
2022-09-17T22:11:48.004Z,11.90
2022-09-17T22:14:19.359Z,11.90
2022-09-17T22:16:50.590Z,11.90
2022-09-17T22:19:20.445Z,11.90
2022-09-17T22:21:51.236Z,11.90
2022-09-17T22:24:22.461Z,11.90
2022-09-17T22:26:56.938Z,11.80
2022-09-17T22:29:28.065Z,11.80
2022-09-17T22:31:57.172Z,11.90
2022-09-17T22:34:26.693Z,11.90
2022-09-17T22:36:55.221Z,11.80
2022-09-17T22:39:25.088Z,11.90
2022-09-17T22:41:53.913Z,11.80
2022-09-17T22:44:22.423Z,11.80
2022-09-17T22:46:52.630Z,11.80
2022-09-17T22:49:21.418Z,11.80
2022-09-17T22:51:49.896Z,11.80
2022-09-17T22:54:19.366Z,11.80
2022-09-17T22:56:49.385Z,11.80
2022-09-17T22:59:18.977Z,11.80
2022-09-17T23:01:47.884Z,11.80
2022-09-17T23:04:16.423Z,11.80
2022-09-17T23:06:44.926Z,11.80
2022-09-17T23:09:14.521Z,11.80
2022-09-17T23:11:43.641Z,11.80
2022-09-17T23:14:14.637Z,11.80
2022-09-17T23:16:45.439Z,11.80
2022-09-17T23:19:15.430Z,11.80
2022-09-17T23:21:44.576Z,11.80
2022-09-17T23:24:18.123Z,11.80
2022-09-17T23:26:46.707Z,11.80
2022-09-17T23:29:17.156Z,11.80
2022-09-17T23:31:45.637Z,11.80
2022-09-17T23:34:14.085Z,11.80
2022-09-17T23:36:42.654Z,11.80
2022-09-17T23:39:12.710Z,11.80
2022-09-17T23:41:44.760Z,11.80
2022-09-17T23:44:15.718Z,11.80
2022-09-17T23:46:46.860Z,11.80
2022-09-17T23:49:16.687Z,11.80
2022-09-17T23:51:45.550Z,11.80
2022-09-17T23:54:14.038Z,11.80
2022-09-17T23:56:42.473Z,11.80
2022-09-17T23:59:11.575Z,11.90
